Time,TemperatureF,DewpointF,PressureIn,WindDirection,WindDirectionDegrees,WindSpeedMPH,WindSpeedGustMPH,Humidity,HourlyPrecipIn,Conditions,Clouds,dailyrainin,SoftwareType,DateUTC
2013-03-07 00:02:00,39.1,38.8,0.00,SW,229,3.2,5.4,99,0.00,,,0.00,WUHU216CR1000,2013-03-07 08:02:00,
2013-03-07 00:07:00,39.1,38.8,0.00,SW,229,3.2,5.4,99,0.00,,,0.00,WUHU216CR1000,2013-03-07 08:07:00,
2013-03-07 00:12:00,39.1,38.8,0.00,SW,229,3.2,5.4,99,0.00,,,0.00,WUHU216CR1000,2013-03-07 08:12:00,
2013-03-07 00:17:00,38.4,38.1,0.00,WNW,294,1.2,3.9,99,0.00,,,0.00,WUHU216CR1000,2013-03-07 08:17:00,
2013-03-07 00:22:00,38.4,38.1,0.00,WNW,294,1.2,3.9,99,0.00,,,0.00,WUHU216CR1000,2013-03-07 08:22:00,
2013-03-07 00:27:00,38.4,38.1,0.00,WNW,294,1.2,3.9,99,0.00,,,0.00,WUHU216CR1000,2013-03-07 08:27:00,
2013-03-07 00:32:00,36.4,36.0,0.00,North,354,0.6,2.4,99,0.00,,,0.00,WUHU216CR1000,2013-03-07 08:32:00,
2013-03-07 00:37:00,36.4,36.0,0.00,North,354,0.6,2.4,99,0.00,,,0.00,WUHU216CR1000,2013-03-07 08:37:00,
2013-03-07 00:42:00,36.4,36.0,0.00,North,354,0.6,2.4,99,0.00,,,0.00,WUHU216CR1000,2013-03-07 08:42:00,
2013-03-07 00:47:00,36.5,36.2,0.00,North,0,0.0,0.0,99,0.00,,,0.00,WUHU216CR1000,2013-03-07 08:47:00,
2013-03-07 00:48:00,36.5,36.2,0.00,North,0,0.0,0.0,99,0.00,,,0.00,WUHU216CR1000,2013-03-07 08:48:00,
2013-03-07 00:52:00,36.5,36.2,0.00,North,0,0.0,0.0,99,0.00,,,0.00,WUHU216CR1000,2013-03-07 08:52:00,
2013-03-07 00:57:00,36.5,36.2,0.00,North,0,0.0,0.0,99,0.00,,,0.00,WUHU216CR1000,2013-03-07 08:57:00,
2013-03-07 01:02:00,36.5,36.2,0.00,SSW,202,0.3,1.2,99,0.00,,,0.00,WUHU216CR1000,2013-03-07 09:02:00,
2013-03-07 01:07:00,36.5,36.2,0.00,SSW,202,0.3,1.2,99,0.00,,,0.00,WUHU216CR1000,2013-03-07 09:07:00,
2013-03-07 01:12:00,36.5,36.2,0.00,SSW,202,0.3,1.2,99,0.00,,,0.00,WUHU216CR1000,2013-03-07 09:12:00,
2013-03-07 01:17:00,36.9,36.6,0.00,SW,235,1.4,3.0,99,0.00,,,0.00,WUHU216CR1000,2013-03-07 09:17:00,
2013-03-07 01:22:00,36.9,36.6,0.00,SW,235,1.4,3.0,99,0.00,,,0.00,WUHU216CR1000,2013-03-07 09:22:00,
2013-03-07 01:27:00,36.9,36.6,0.00,SW,235,1.4,3.0,99,0.00,,,0.00,WUHU216CR1000,2013-03-07 09:27:00,
2013-03-07 01:32:00,36.9,36.6,0.00,SW,233,1.5,2.5,99,0.00,,,0.00,WUHU216CR1000,2013-03-07 09:32:00,
2013-03-07 01:33:00,36.9,36.6,0.00,SW,233,1.5,2.5,99,0.00,,,0.00,WUHU216CR1000,2013-03-07 09:33:00,
2013-03-07 01:37:00,36.9,36.6,0.00,SW,233,1.5,2.5,99,0.00,,,0.00,WUHU216CR1000,2013-03-07 09:37:00,
2013-03-07 01:42:00,36.9,36.6,0.00,SW,233,1.5,2.5,99,0.00,,,0.00,WUHU216CR1000,2013-03-07 09:42:00,
2013-03-07 01:47:00,36.5,36.2,0.00,West,261,0.4,2.5,99,0.00,,,0.00,WUHU216CR1000,2013-03-07 09:47:00,
2013-03-07 01:52:00,36.5,36.2,0.00,West,261,0.4,2.5,99,0.00,,,0.00,WUHU216CR1000,2013-03-07 09:52:00,
2013-03-07 01:57:00,36.5,36.2,0.00,West,261,0.4,2.5,99,0.00,,,0.00,WUHU216CR1000,2013-03-07 09:57:00,
2013-03-07 02:02:00,35.9,35.6,0.00,South,180,0.4,1.2,99,0.00,,,0.00,WUHU216CR1000,2013-03-07 10:02:00,
2013-03-07 02:07:00,35.9,35.6,0.00,South,180,0.4,1.2,99,0.00,,,0.00,WUHU216CR1000,2013-03-07 10:07:00,
2013-03-07 02:17:00,35.8,35.5,0.00,NE,41,0.8,2.9,99,0.00,,,0.00,WUHU216CR1000,2013-03-07 10:17:00,
2013-03-07 02:18:00,35.8,35.5,0.00,NE,41,0.8,2.9,99,0.00,,,0.00,WUHU216CR1000,2013-03-07 10:18:00,
2013-03-07 02:22:00,35.8,35.5,0.00,NE,41,0.8,2.9,99,0.00,,,0.00,WUHU216CR1000,2013-03-07 10:22:00,
2013-03-07 02:27:00,35.8,35.5,0.00,NE,41,0.8,2.9,99,0.00,,,0.00,WUHU216CR1000,2013-03-07 10:27:00,
2013-03-07 02:32:00,36.5,36.3,0.00,NW,320,1.3,2.5,99,0.00,,,0.00,WUHU216CR1000,2013-03-07 10:32:00,
2013-03-07 02:37:00,36.5,36.3,0.00,NW,320,1.3,2.5,99,0.00,,,0.00,WUHU216CR1000,2013-03-07 10:37:00,
2013-03-07 02:42:00,36.5,36.3,0.00,NW,320,1.3,2.5,99,0.00,,,0.00,WUHU216CR1000,2013-03-07 10:42:00,
2013-03-07 02:47:00,36.4,36.2,0.00,WNW,299,0.6,1.8,99,0.00,,,0.00,WUHU216CR1000,2013-03-07 10:47:00,
2013-03-07 02:52:00,36.4,36.2,0.00,WNW,299,0.6,1.8,99,0.00,,,0.00,WUHU216CR1000,2013-03-07 10:52:00,
2013-03-07 02:57:00,36.4,36.2,0.00,WNW,299,0.6,1.8,99,0.00,,,0.00,WUHU216CR1000,2013-03-07 10:57:00,
2013-03-07 03:02:00,36.2,35.9,0.00,WSW,241,1.0,2.7,99,0.00,,,0.00,WUHU216CR1000,2013-03-07 11:02:00,
2013-03-07 03:07:00,36.2,35.9,0.00,WSW,241,1.0,2.7,99,0.00,,,0.00,WUHU216CR1000,2013-03-07 11:07:00,
2013-03-07 03:12:00,36.2,35.9,0.00,WSW,241,1.0,2.7,99,0.00,,,0.00,WUHU216CR1000,2013-03-07 11:12:00,
2013-03-07 03:17:00,36.1,35.9,0.00,SSW,199,0.4,2.5,99,0.00,,,0.00,WUHU216CR1000,2013-03-07 11:17:00,
2013-03-07 03:18:00,36.1,35.9,0.00,SSW,199,0.4,2.5,99,0.00,,,0.00,WUHU216CR1000,2013-03-07 11:18:00,
2013-03-07 03:22:00,36.1,35.9,0.00,SSW,199,0.4,2.5,99,0.00,,,0.00,WUHU216CR1000,2013-03-07 11:22:00,
2013-03-07 03:27:00,36.1,35.9,0.00,SSW,199,0.4,2.5,99,0.00,,,0.00,WUHU216CR1000,2013-03-07 11:27:00,
2013-03-07 03:32:00,36.0,35.8,0.00,North,358,0.2,1.8,99,0.00,,,0.00,WUHU216CR1000,2013-03-07 11:32:00,
2013-03-07 03:37:00,36.0,35.8,0.00,North,358,0.2,1.8,99,0.00,,,0.00,WUHU216CR1000,2013-03-07 11:37:00,
2013-03-07 03:42:00,36.0,35.8,0.00,North,358,0.2,1.8,99,0.00,,,0.00,WUHU216CR1000,2013-03-07 11:42:00,
2013-03-07 03:47:00,36.3,36.0,0.00,North,7,1.2,3.8,99,0.00,,,0.00,WUHU216CR1000,2013-03-07 11:47:00,
2013-03-07 03:52:00,36.3,36.0,0.00,North,7,1.2,3.8,99,0.00,,,0.00,WUHU216CR1000,2013-03-07 11:52:00,
2013-03-07 03:57:00,36.3,36.0,0.00,North,7,1.2,3.8,99,0.00,,,0.00,WUHU216CR1000,2013-03-07 11:57:00,
2013-03-07 04:02:00,36.2,36.0,0.00,North,0,1.5,3.6,99,0.00,,,0.00,WUHU216CR1000,2013-03-07 12:02:00,
2013-03-07 04:07:00,36.2,36.0,0.00,North,0,1.5,3.6,99,0.00,,,0.00,WUHU216CR1000,2013-03-07 12:07:00,
2013-03-07 04:12:00,36.2,36.0,0.00,North,0,1.5,3.6,99,0.00,,,0.00,WUHU216CR1000,2013-03-07 12:12:00,
2013-03-07 04:17:00,36.3,36.1,0.00,North,355,3.3,6.4,99,0.00,,,0.00,WUHU216CR1000,2013-03-07 12:17:00,
2013-03-07 04:18:00,36.3,36.1,0.00,North,355,3.3,6.4,99,0.00,,,0.00,WUHU216CR1000,2013-03-07 12:18:00,
2013-03-07 04:22:00,36.3,36.1,0.00,North,355,3.3,6.4,99,0.00,,,0.00,WUHU216CR1000,2013-03-07 12:22:00,
2013-03-07 04:27:00,36.3,36.1,0.00,North,355,3.3,6.4,99,0.00,,,0.00,WUHU216CR1000,2013-03-07 12:27:00,
2013-03-07 04:33:00,36.3,36.1,0.00,North,352,3.8,7.6,99,0.00,,,0.00,WUHU216CR1000,2013-03-07 12:33:00,
2013-03-07 04:38:00,36.3,36.1,0.00,North,352,3.8,7.6,99,0.00,,,0.00,WUHU216CR1000,2013-03-07 12:38:00,
2013-03-07 04:47:00,36.6,36.4,0.00,North,351,1.0,3.5,99,0.00,,,0.00,WUHU216CR1000,2013-03-07 12:47:00,
2013-03-07 04:52:00,36.6,36.4,0.00,North,351,1.0,3.5,99,0.00,,,0.00,WUHU216CR1000,2013-03-07 12:52:00,
2013-03-07 04:57:00,36.6,36.4,0.00,North,351,1.0,3.5,99,0.00,,,0.00,WUHU216CR1000,2013-03-07 12:57:00,
2013-03-07 05:02:00,36.8,36.5,0.00,WNW,292,0.7,2.6,99,0.00,,,0.00,WUHU216CR1000,2013-03-07 13:02:00,
2013-03-07 05:03:00,36.8,36.5,0.00,WNW,292,0.7,2.6,99,0.00,,,0.00,WUHU216CR1000,2013-03-07 13:03:00,
2013-03-07 05:07:00,36.8,36.5,0.00,WNW,292,0.7,2.6,99,0.00,,,0.00,WUHU216CR1000,2013-03-07 13:07:00,
2013-03-07 05:12:00,36.8,36.5,0.00,WNW,292,0.7,2.6,99,0.00,,,0.00,WUHU216CR1000,2013-03-07 13:12:00,
2013-03-07 05:17:00,37.5,37.2,0.00,North,355,3.7,7.8,99,0.00,,,0.00,WUHU216CR1000,2013-03-07 13:17:00,
2013-03-07 05:22:00,37.5,37.2,0.00,North,355,3.7,7.8,99,0.00,,,0.00,WUHU216CR1000,2013-03-07 13:22:00,
2013-03-07 05:27:00,37.5,37.2,0.00,North,355,3.7,7.8,99,0.00,,,0.00,WUHU216CR1000,2013-03-07 13:27:00,
2013-03-07 05:32:00,37.8,37.4,0.00,North,352,1.7,5.7,99,0.00,,,0.00,WUHU216CR1000,2013-03-07 13:32:00,
2013-03-07 05:37:00,37.8,37.4,0.00,North,352,1.7,5.7,99,0.00,,,0.00,WUHU216CR1000,2013-03-07 13:37:00,
2013-03-07 05:42:00,37.8,37.4,0.00,North,352,1.7,5.7,99,0.00,,,0.00,WUHU216CR1000,2013-03-07 13:42:00,
2013-03-07 05:47:00,37.5,37.0,0.00,NNE,20,1.3,4.6,98,0.00,,,0.00,WUHU216CR1000,2013-03-07 13:47:00,
2013-03-07 05:48:00,37.5,37.0,0.00,NNE,20,1.3,4.6,98,0.00,,,0.00,WUHU216CR1000,2013-03-07 13:48:00,
2013-03-07 05:52:00,37.5,37.0,0.00,NNE,20,1.3,4.6,98,0.00,,,0.00,WUHU216CR1000,2013-03-07 13:52:00,
2013-03-07 05:57:00,37.5,37.0,0.00,NNE,20,1.3,4.6,98,0.00,,,0.00,WUHU216CR1000,2013-03-07 13:57:00,
2013-03-07 06:02:00,37.2,36.7,0.00,West,271,1.4,2.9,98,0.00,,,0.00,WUHU216CR1000,2013-03-07 14:02:00,
2013-03-07 06:07:00,37.2,36.7,0.00,West,271,1.4,2.9,98,0.00,,,0.00,WUHU216CR1000,2013-03-07 14:07:00,
2013-03-07 06:12:00,37.2,36.7,0.00,West,271,1.4,2.9,98,0.00,,,0.00,WUHU216CR1000,2013-03-07 14:12:00,
2013-03-07 06:17:00,37.0,36.6,0.00,WNW,298,0.8,1.9,98,0.00,,,0.00,WUHU216CR1000,2013-03-07 14:17:00,
2013-03-07 06:22:00,37.0,36.6,0.00,WNW,298,0.8,1.9,98,0.00,,,0.00,WUHU216CR1000,2013-03-07 14:22:00,
2013-03-07 06:27:00,37.0,36.6,0.00,WNW,298,0.8,1.9,98,0.00,,,0.00,WUHU216CR1000,2013-03-07 14:27:00,
2013-03-07 06:32:00,36.7,36.3,0.00,SE,140,0.1,1.0,98,0.00,,,0.00,WUHU216CR1000,2013-03-07 14:32:00,
2013-03-07 06:33:00,36.7,36.3,0.00,SE,140,0.1,1.0,98,0.00,,,0.00,WUHU216CR1000,2013-03-07 14:33:00,
2013-03-07 06:37:00,36.7,36.3,0.00,SE,140,0.1,1.0,98,0.00,,,0.00,WUHU216CR1000,2013-03-07 14:37:00,
2013-03-07 06:42:00,36.7,36.3,0.00,SE,140,0.1,1.0,98,0.00,,,0.00,WUHU216CR1000,2013-03-07 14:42:00,
2013-03-07 06:47:00,36.7,36.3,0.00,NNW,341,0.3,1.4,98,0.00,,,0.00,WUHU216CR1000,2013-03-07 14:47:00,
2013-03-07 06:48:00,36.7,36.3,0.00,NNW,341,0.3,1.4,98,0.00,,,0.00,WUHU216CR1000,2013-03-07 14:48:00,
2013-03-07 06:52:00,36.7,36.3,0.00,NNW,341,0.3,1.4,98,0.00,,,0.00,WUHU216CR1000,2013-03-07 14:52:00,
2013-03-07 06:57:00,36.7,36.3,0.00,NNW,341,0.3,1.4,98,0.00,,,0.00,WUHU216CR1000,2013-03-07 14:57:00,
2013-03-07 07:02:00,36.6,36.3,0.00,NW,318,0.9,2.0,98,0.00,,,0.00,WUHU216CR1000,2013-03-07 15:02:00,
2013-03-07 07:07:00,36.6,36.3,0.00,NW,318,0.9,2.0,98,0.00,,,0.00,WUHU216CR1000,2013-03-07 15:07:00,
2013-03-07 07:12:00,36.6,36.3,0.00,NW,318,0.9,2.0,98,0.00,,,0.00,WUHU216CR1000,2013-03-07 15:12:00,
2013-03-07 07:17:00,36.9,36.5,0.00,NE,45,0.4,1.6,99,0.00,,,0.00,WUHU216CR1000,2013-03-07 15:17:00,
2013-03-07 07:18:00,36.9,36.5,0.00,NE,45,0.4,1.6,99,0.00,,,0.00,WUHU216CR1000,2013-03-07 15:18:00,
2013-03-07 07:22:00,36.9,36.5,0.00,NE,45,0.4,1.6,99,0.00,,,0.00,WUHU216CR1000,2013-03-07 15:22:00,
2013-03-07 07:32:00,37.3,36.9,0.00,NW,325,0.8,2.2,99,0.00,,,0.00,WUHU216CR1000,2013-03-07 15:32:00,
2013-03-07 07:37:00,37.3,36.9,0.00,NW,325,0.8,2.2,99,0.00,,,0.00,WUHU216CR1000,2013-03-07 15:37:00,
2013-03-07 07:42:00,37.3,36.9,0.00,NW,325,0.8,2.2,99,0.00,,,0.00,WUHU216CR1000,2013-03-07 15:42:00,
2013-03-07 07:47:00,37.5,37.1,0.00,North,8,0.4,1.9,98,0.00,,,0.00,WUHU216CR1000,2013-03-07 15:47:00,
2013-03-07 07:52:00,37.5,37.1,0.00,North,8,0.4,1.9,98,0.00,,,0.00,WUHU216CR1000,2013-03-07 15:52:00,
2013-03-07 07:57:00,37.5,37.1,0.00,North,8,0.4,1.9,98,0.00,,,0.00,WUHU216CR1000,2013-03-07 15:57:00,
2013-03-07 08:02:00,37.8,37.4,0.00,NNE,14,2.4,4.5,98,0.00,,,0.00,WUHU216CR1000,2013-03-07 16:02:00,
2013-03-07 08:07:00,37.8,37.4,0.00,NNE,14,2.4,4.5,98,0.00,,,0.00,WUHU216CR1000,2013-03-07 16:07:00,
2013-03-07 08:12:00,37.8,37.4,0.00,NNE,14,2.4,4.5,98,0.00,,,0.00,WUHU216CR1000,2013-03-07 16:12:00,
2013-03-07 08:17:00,38.2,37.8,0.00,North,354,2.0,4.3,98,0.00,,,0.00,WUHU216CR1000,2013-03-07 16:17:00,
2013-03-07 08:22:00,38.2,37.8,0.00,North,354,2.0,4.3,98,0.00,,,0.00,WUHU216CR1000,2013-03-07 16:22:00,
2013-03-07 08:27:00,38.2,37.8,0.00,North,354,2.0,4.3,98,0.00,,,0.00,WUHU216CR1000,2013-03-07 16:27:00,
2013-03-07 08:32:00,39.0,38.4,0.00,North,350,3.5,7.2,98,0.00,,,0.00,WUHU216CR1000,2013-03-07 16:32:00,
2013-03-07 08:37:00,39.0,38.4,0.00,North,350,3.5,7.2,98,0.00,,,0.00,WUHU216CR1000,2013-03-07 16:37:00,
2013-03-07 08:42:00,39.0,38.4,0.00,North,350,3.5,7.2,98,0.00,,,0.00,WUHU216CR1000,2013-03-07 16:42:00,
2013-03-07 08:47:00,39.9,39.0,0.00,NW,318,2.4,4.7,97,0.00,,,0.00,WUHU216CR1000,2013-03-07 16:47:00,
2013-03-07 08:48:00,39.9,39.0,0.00,NW,318,2.4,4.7,97,0.00,,,0.00,WUHU216CR1000,2013-03-07 16:48:00,
2013-03-07 08:52:00,39.9,39.0,0.00,NW,318,2.4,4.7,97,0.00,,,0.00,WUHU216CR1000,2013-03-07 16:52:00,
2013-03-07 08:57:00,39.9,39.0,0.00,NW,318,2.4,4.7,97,0.00,,,0.00,WUHU216CR1000,2013-03-07 16:57:00,
2013-03-07 09:02:00,41.5,40.1,0.00,SW,219,1.2,3.8,95,0.00,,,0.00,WUHU216CR1000,2013-03-07 17:02:00,
2013-03-07 09:07:00,41.5,40.1,0.00,SW,219,1.2,3.8,95,0.00,,,0.00,WUHU216CR1000,2013-03-07 17:07:00,
2013-03-07 09:12:00,41.5,40.1,0.00,SW,219,1.2,3.8,95,0.00,,,0.00,WUHU216CR1000,2013-03-07 17:12:00,
2013-03-07 09:17:00,42.8,40.3,0.00,WNW,292,1.6,3.4,91,0.00,,,0.00,WUHU216CR1000,2013-03-07 17:17:00,
2013-03-07 09:22:00,42.8,40.3,0.00,WNW,292,1.6,3.4,91,0.00,,,0.00,WUHU216CR1000,2013-03-07 17:22:00,
2013-03-07 09:27:00,42.8,40.3,0.00,WNW,292,1.6,3.4,91,0.00,,,0.00,WUHU216CR1000,2013-03-07 17:27:00,
2013-03-07 09:32:00,43.2,41.1,0.00,SW,222,1.5,3.1,92,0.00,,,0.00,WUHU216CR1000,2013-03-07 17:32:00,
2013-03-07 09:37:00,43.2,41.1,0.00,SW,222,1.5,3.1,92,0.00,,,0.00,WUHU216CR1000,2013-03-07 17:37:00,
2013-03-07 09:42:00,43.2,41.1,0.00,SW,222,1.5,3.1,92,0.00,,,0.00,WUHU216CR1000,2013-03-07 17:42:00,
2013-03-07 09:47:00,44.3,41.1,0.00,ENE,71,1.5,3.4,88,0.00,,,0.00,WUHU216CR1000,2013-03-07 17:47:00,
2013-03-07 09:52:00,44.3,41.1,0.00,ENE,71,1.5,3.4,88,0.00,,,0.00,WUHU216CR1000,2013-03-07 17:52:00,
2013-03-07 09:57:00,44.3,41.1,0.00,ENE,71,1.5,3.4,88,0.00,,,0.00,WUHU216CR1000,2013-03-07 17:57:00,
2013-03-07 10:02:00,45.8,41.5,0.00,ENE,70,2.5,4.7,85,0.00,,,0.00,WUHU216CR1000,2013-03-07 18:02:00,
2013-03-07 10:07:00,45.8,41.5,0.00,ENE,70,2.5,4.7,85,0.00,,,0.00,WUHU216CR1000,2013-03-07 18:07:00,
2013-03-07 10:12:00,45.8,41.5,0.00,ENE,70,2.5,4.7,85,0.00,,,0.00,WUHU216CR1000,2013-03-07 18:12:00,
2013-03-07 10:17:00,47.1,41.4,0.00,ENE,77,2.8,5.6,81,0.00,,,0.00,WUHU216CR1000,2013-03-07 18:17:00,
2013-03-07 10:22:00,47.1,41.4,0.00,ENE,77,2.8,5.6,81,0.00,,,0.00,WUHU216CR1000,2013-03-07 18:22:00,
2013-03-07 10:27:00,47.1,41.4,0.00,ENE,77,2.8,5.6,81,0.00,,,0.00,WUHU216CR1000,2013-03-07 18:27:00,
2013-03-07 10:32:00,48.4,40.9,0.00,NE,53,2.8,6.0,75,0.00,,,0.00,WUHU216CR1000,2013-03-07 18:32:00,
2013-03-07 10:33:00,48.4,40.9,0.00,NE,53,2.8,6.0,75,0.00,,,0.00,WUHU216CR1000,2013-03-07 18:33:00,
2013-03-07 10:37:00,48.4,40.9,0.00,NE,53,2.8,6.0,75,0.00,,,0.00,WUHU216CR1000,2013-03-07 18:37:00,
2013-03-07 10:42:00,48.4,40.9,0.00,NE,53,2.8,6.0,75,0.00,,,0.00,WUHU216CR1000,2013-03-07 18:42:00,
2013-03-07 10:47:00,49.9,41.2,0.00,ENE,60,2.7,7.6,72,0.00,,,0.00,WUHU216CR1000,2013-03-07 18:47:00,
2013-03-07 10:52:00,49.9,41.2,0.00,ENE,60,2.7,7.6,72,0.00,,,0.00,WUHU216CR1000,2013-03-07 18:52:00,
2013-03-07 10:57:00,49.9,41.2,0.00,ENE,60,2.7,7.6,72,0.00,,,0.00,WUHU216CR1000,2013-03-07 18:57:00,
2013-03-07 11:02:00,51.3,41.5,0.00,East,85,2.0,6.7,69,0.00,,,0.00,WUHU216CR1000,2013-03-07 19:02:00,
2013-03-07 11:03:00,51.3,41.5,0.00,East,85,2.0,6.7,69,0.00,,,0.00,WUHU216CR1000,2013-03-07 19:03:00,
2013-03-07 11:07:00,51.3,41.5,0.00,East,85,2.0,6.7,69,0.00,,,0.00,WUHU216CR1000,2013-03-07 19:07:00,
2013-03-07 11:17:00,51.3,40.8,0.00,NE,38,3.0,7.5,67,0.00,,,0.00,WUHU216CR1000,2013-03-07 19:17:00,
2013-03-07 11:22:00,51.3,40.8,0.00,NE,38,3.0,7.5,67,0.00,,,0.00,WUHU216CR1000,2013-03-07 19:22:00,
2013-03-07 11:27:00,51.3,40.8,0.00,NE,38,3.0,7.5,67,0.00,,,0.00,WUHU216CR1000,2013-03-07 19:27:00,
2013-03-07 11:32:00,51.8,40.4,0.00,East,85,2.3,5.9,65,0.00,,,0.00,WUHU216CR1000,2013-03-07 19:32:00,
2013-03-07 11:37:00,51.8,40.4,0.00,East,85,2.3,5.9,65,0.00,,,0.00,WUHU216CR1000,2013-03-07 19:37:00,
2013-03-07 11:42:00,51.8,40.4,0.00,East,85,2.3,5.9,65,0.00,,,0.00,WUHU216CR1000,2013-03-07 19:42:00,
2013-03-07 11:47:00,52.4,39.1,0.00,SSE,152,2.2,6.4,60,0.00,,,0.00,WUHU216CR1000,2013-03-07 19:47:00,
2013-03-07 11:53:00,52.4,39.1,0.00,SSE,152,2.2,6.4,60,0.00,,,0.00,WUHU216CR1000,2013-03-07 19:53:00,
2013-03-07 11:58:00,52.4,39.1,0.00,SSE,152,2.2,6.4,60,0.00,,,0.00,WUHU216CR1000,2013-03-07 19:58:00,
2013-03-07 12:03:00,53.0,39.2,0.00,ESE,113,2.1,6.0,59,0.00,,,0.00,WUHU216CR1000,2013-03-07 20:03:00,
2013-03-07 12:08:00,53.0,39.2,0.00,ESE,113,2.1,6.0,59,0.00,,,0.00,WUHU216CR1000,2013-03-07 20:08:00,
2013-03-07 12:17:00,53.3,39.6,0.00,South,177,3.4,6.8,60,0.00,,,0.00,WUHU216CR1000,2013-03-07 20:17:00,
2013-03-07 12:22:00,53.3,39.6,0.00,South,177,3.4,6.8,60,0.00,,,0.00,WUHU216CR1000,2013-03-07 20:22:00,
2013-03-07 12:27:00,53.3,39.6,0.00,South,177,3.4,6.8,60,0.00,,,0.00,WUHU216CR1000,2013-03-07 20:27:00,
2013-03-07 12:32:00,52.9,40.0,0.00,South,183,2.1,6.4,62,0.00,,,0.00,WUHU216CR1000,2013-03-07 20:32:00,
2013-03-07 12:37:00,52.9,40.0,0.00,South,183,2.1,6.4,62,0.00,,,0.00,WUHU216CR1000,2013-03-07 20:37:00,
2013-03-07 12:42:00,52.9,40.0,0.00,South,183,2.1,6.4,62,0.00,,,0.00,WUHU216CR1000,2013-03-07 20:42:00,
2013-03-07 12:47:00,52.4,40.1,0.00,SW,218,2.6,6.1,63,0.00,,,0.00,WUHU216CR1000,2013-03-07 20:47:00,
2013-03-07 12:52:00,52.4,40.1,0.00,SW,218,2.6,6.1,63,0.00,,,0.00,WUHU216CR1000,2013-03-07 20:52:00,
2013-03-07 12:57:00,52.4,40.1,0.00,SW,218,2.6,6.1,63,0.00,,,0.00,WUHU216CR1000,2013-03-07 20:57:00,
2013-03-07 13:02:00,52.8,40.2,0.00,South,172,2.1,6.0,62,0.00,,,0.00,WUHU216CR1000,2013-03-07 21:02:00,
2013-03-07 13:07:00,52.8,40.2,0.00,South,172,2.1,6.0,62,0.00,,,0.00,WUHU216CR1000,2013-03-07 21:07:00,
2013-03-07 13:12:00,52.8,40.2,0.00,South,172,2.1,6.0,62,0.00,,,0.00,WUHU216CR1000,2013-03-07 21:12:00,
2013-03-07 13:17:00,52.9,39.7,0.00,SSW,200,1.3,4.5,61,0.00,,,0.00,WUHU216CR1000,2013-03-07 21:17:00,
2013-03-07 13:18:00,52.9,39.7,0.00,SSW,200,1.3,4.5,61,0.00,,,0.00,WUHU216CR1000,2013-03-07 21:18:00,
2013-03-07 13:22:00,52.9,39.7,0.00,SSW,200,1.3,4.5,61,0.00,,,0.00,WUHU216CR1000,2013-03-07 21:22:00,
2013-03-07 13:27:00,52.9,39.7,0.00,SSW,200,1.3,4.5,61,0.00,,,0.00,WUHU216CR1000,2013-03-07 21:27:00,
2013-03-07 13:32:00,53.3,39.0,0.00,SE,134,1.6,5.0,58,0.00,,,0.00,WUHU216CR1000,2013-03-07 21:32:00,
2013-03-07 13:37:00,53.3,39.0,0.00,SE,134,1.6,5.0,58,0.00,,,0.00,WUHU216CR1000,2013-03-07 21:37:00,
2013-03-07 13:42:00,53.3,39.0,0.00,SE,134,1.6,5.0,58,0.00,,,0.00,WUHU216CR1000,2013-03-07 21:42:00,
2013-03-07 13:47:00,53.3,38.0,0.00,SE,128,2.2,4.8,56,0.00,,,0.00,WUHU216CR1000,2013-03-07 21:47:00,
2013-03-07 13:52:00,53.3,38.0,0.00,SE,128,2.2,4.8,56,0.00,,,0.00,WUHU216CR1000,2013-03-07 21:52:00,
2013-03-07 13:57:00,53.3,38.0,0.00,SE,128,2.2,4.8,56,0.00,,,0.00,WUHU216CR1000,2013-03-07 21:57:00,
2013-03-07 14:02:00,53.7,37.9,0.00,SE,143,2.5,7.0,55,0.00,,,0.00,WUHU216CR1000,2013-03-07 22:02:00,
2013-03-07 14:07:00,53.7,37.9,0.00,SE,143,2.5,7.0,55,0.00,,,0.00,WUHU216CR1000,2013-03-07 22:07:00,
2013-03-07 14:12:00,53.7,37.9,0.00,SE,143,2.5,7.0,55,0.00,,,0.00,WUHU216CR1000,2013-03-07 22:12:00,
2013-03-07 14:17:00,53.8,37.3,0.00,ESE,115,3.0,7.2,54,0.00,,,0.00,WUHU216CR1000,2013-03-07 22:17:00,
2013-03-07 14:22:00,53.8,37.3,0.00,ESE,115,3.0,7.2,54,0.00,,,0.00,WUHU216CR1000,2013-03-07 22:22:00,
2013-03-07 14:27:00,53.8,37.3,0.00,ESE,115,3.0,7.2,54,0.00,,,0.00,WUHU216CR1000,2013-03-07 22:27:00,
2013-03-07 14:32:00,54.1,37.0,0.00,East,100,3.0,5.9,52,0.00,,,0.00,WUHU216CR1000,2013-03-07 22:32:00,
2013-03-07 14:37:00,54.1,37.0,0.00,East,100,3.0,5.9,52,0.00,,,0.00,WUHU216CR1000,2013-03-07 22:37:00,
2013-03-07 14:42:00,54.1,37.0,0.00,East,100,3.0,5.9,52,0.00,,,0.00,WUHU216CR1000,2013-03-07 22:42:00,
2013-03-07 14:47:00,54.2,36.7,0.00,ESE,112,3.7,8.6,52,0.00,,,0.00,WUHU216CR1000,2013-03-07 22:47:00,
2013-03-07 14:52:00,54.2,36.7,0.00,ESE,112,3.7,8.6,52,0.00,,,0.00,WUHU216CR1000,2013-03-07 22:52:00,
2013-03-07 14:57:00,54.2,36.7,0.00,ESE,112,3.7,8.6,52,0.00,,,0.00,WUHU216CR1000,2013-03-07 22:57:00,
2013-03-07 15:02:00,54.1,36.3,0.00,ESE,108,3.4,7.0,51,0.00,,,0.00,WUHU216CR1000,2013-03-07 23:02:00,
2013-03-07 15:07:00,54.1,36.3,0.00,ESE,108,3.4,7.0,51,0.00,,,0.00,WUHU216CR1000,2013-03-07 23:07:00,
2013-03-07 15:12:00,54.1,36.3,0.00,ESE,108,3.4,7.0,51,0.00,,,0.00,WUHU216CR1000,2013-03-07 23:12:00,
2013-03-07 15:17:00,54.2,35.5,0.00,ESE,122,2.3,4.7,49,0.00,,,0.00,WUHU216CR1000,2013-03-07 23:17:00,
2013-03-07 15:22:00,54.2,35.5,0.00,ESE,122,2.3,4.7,49,0.00,,,0.00,WUHU216CR1000,2013-03-07 23:22:00,
2013-03-07 15:27:00,54.2,35.5,0.00,ESE,122,2.3,4.7,49,0.00,,,0.00,WUHU216CR1000,2013-03-07 23:27:00,
2013-03-07 15:32:00,54.4,36.1,0.00,NE,56,2.5,5.2,50,0.00,,,0.00,WUHU216CR1000,2013-03-07 23:32:00,
2013-03-07 15:37:00,54.4,36.1,0.00,NE,56,2.5,5.2,50,0.00,,,0.00,WUHU216CR1000,2013-03-07 23:37:00,
2013-03-07 15:42:00,54.4,36.1,0.00,NE,56,2.5,5.2,50,0.00,,,0.00,WUHU216CR1000,2013-03-07 23:42:00,
2013-03-07 15:47:00,54.6,36.7,0.00,NNE,30,2.7,5.3,51,0.00,,,0.00,WUHU216CR1000,2013-03-07 23:47:00,
2013-03-07 15:52:00,54.6,36.7,0.00,NNE,30,2.7,5.3,51,0.00,,,0.00,WUHU216CR1000,2013-03-07 23:52:00,
2013-03-07 15:57:00,54.6,36.7,0.00,NNE,30,2.7,5.3,51,0.00,,,0.00,WUHU216CR1000,2013-03-07 23:57:00,
2013-03-07 16:02:00,54.3,36.5,0.00,NNE,17,3.3,5.5,51,0.00,,,0.00,WUHU216CR1000,2013-03-08 00:02:00,
2013-03-07 16:07:00,54.3,36.5,0.00,NNE,17,3.3,5.5,51,0.00,,,0.00,WUHU216CR1000,2013-03-08 00:07:00,
2013-03-07 16:13:00,54.3,36.5,0.00,NNE,17,3.3,5.5,51,0.00,,,0.00,WUHU216CR1000,2013-03-08 00:13:00,
2013-03-07 16:18:00,54.0,37.4,0.00,NNW,335,3.7,6.8,53,0.00,,,0.00,WUHU216CR1000,2013-03-08 00:18:00,
2013-03-07 16:23:00,54.0,37.4,0.00,NNW,335,3.7,6.8,53,0.00,,,0.00,WUHU216CR1000,2013-03-08 00:23:00,
2013-03-07 16:32:00,53.8,38.3,0.00,NNW,333,3.5,6.4,56,0.00,,,0.00,WUHU216CR1000,2013-03-08 00:32:00,
2013-03-07 16:37:00,53.8,38.3,0.00,NNW,333,3.5,6.4,56,0.00,,,0.00,WUHU216CR1000,2013-03-08 00:37:00,
2013-03-07 16:42:00,53.8,38.3,0.00,NNW,333,3.5,6.4,56,0.00,,,0.00,WUHU216CR1000,2013-03-08 00:42:00,
2013-03-07 16:47:00,53.5,39.6,0.00,NNW,333,3.7,5.9,59,0.00,,,0.00,WUHU216CR1000,2013-03-08 00:47:00,
2013-03-07 16:52:00,53.5,39.6,0.00,NNW,333,3.7,5.9,59,0.00,,,0.00,WUHU216CR1000,2013-03-08 00:52:00,
2013-03-07 16:57:00,53.5,39.6,0.00,NNW,333,3.7,5.9,59,0.00,,,0.00,WUHU216CR1000,2013-03-08 00:57:00,
2013-03-07 17:02:00,53.0,39.9,0.00,NNW,330,3.8,5.7,61,0.00,,,0.00,WUHU216CR1000,2013-03-08 01:02:00,
2013-03-07 17:03:00,53.0,39.9,0.00,NNW,330,3.8,5.7,61,0.00,,,0.00,WUHU216CR1000,2013-03-08 01:03:00,
2013-03-07 17:07:00,53.0,39.9,0.00,NNW,330,3.8,5.7,61,0.00,,,0.00,WUHU216CR1000,2013-03-08 01:07:00,
2013-03-07 17:12:00,53.0,39.9,0.00,NNW,330,3.8,5.7,61,0.00,,,0.00,WUHU216CR1000,2013-03-08 01:12:00,
2013-03-07 17:17:00,53.0,39.0,0.00,SSW,195,1.6,4.7,59,0.00,,,0.00,WUHU216CR1000,2013-03-08 01:17:00,
2013-03-07 17:22:00,53.0,39.0,0.00,SSW,195,1.6,4.7,59,0.00,,,0.00,WUHU216CR1000,2013-03-08 01:22:00,
2013-03-07 17:27:00,53.0,39.0,0.00,SSW,195,1.6,4.7,59,0.00,,,0.00,WUHU216CR1000,2013-03-08 01:27:00,
2013-03-07 17:32:00,53.0,38.1,0.00,ESE,121,3.5,9.2,57,0.00,,,0.00,WUHU216CR1000,2013-03-08 01:32:00,
2013-03-07 17:37:00,53.0,38.1,0.00,ESE,121,3.5,9.2,57,0.00,,,0.00,WUHU216CR1000,2013-03-08 01:37:00,
2013-03-07 17:42:00,53.0,38.1,0.00,ESE,121,3.5,9.2,57,0.00,,,0.00,WUHU216CR1000,2013-03-08 01:42:00,
2013-03-07 17:47:00,52.0,39.6,0.00,NE,49,1.3,2.6,62,0.00,,,0.00,WUHU216CR1000,2013-03-08 01:47:00,
2013-03-07 17:52:00,52.0,39.6,0.00,NE,49,1.3,2.6,62,0.00,,,0.00,WUHU216CR1000,2013-03-08 01:52:00,
2013-03-07 17:57:00,52.0,39.6,0.00,NE,49,1.3,2.6,62,0.00,,,0.00,WUHU216CR1000,2013-03-08 01:57:00,
2013-03-07 18:02:00,52.1,40.2,0.00,WSW,256,2.0,5.0,64,0.00,,,0.00,WUHU216CR1000,2013-03-08 02:02:00,
2013-03-07 18:07:00,52.1,40.2,0.00,WSW,256,2.0,5.0,64,0.00,,,0.00,WUHU216CR1000,2013-03-08 02:07:00,
2013-03-07 18:12:00,52.1,40.2,0.00,WSW,256,2.0,5.0,64,0.00,,,0.00,WUHU216CR1000,2013-03-08 02:12:00,
2013-03-07 18:17:00,50.7,41.4,0.00,WSW,257,2.4,5.5,70,0.00,,,0.00,WUHU216CR1000,2013-03-08 02:17:00,
2013-03-07 18:22:00,50.7,41.4,0.00,WSW,257,2.4,5.5,70,0.00,,,0.00,WUHU216CR1000,2013-03-08 02:22:00,
2013-03-07 18:27:00,50.7,41.4,0.00,WSW,257,2.4,5.5,70,0.00,,,0.00,WUHU216CR1000,2013-03-08 02:27:00,
2013-03-07 18:32:00,50.5,40.1,0.00,NW,310,4.6,8.9,68,0.00,,,0.00,WUHU216CR1000,2013-03-08 02:32:00,
2013-03-07 18:37:00,50.5,40.1,0.00,NW,310,4.6,8.9,68,0.00,,,0.00,WUHU216CR1000,2013-03-08 02:37:00,
2013-03-07 18:42:00,50.5,40.1,0.00,NW,310,4.6,8.9,68,0.00,,,0.00,WUHU216CR1000,2013-03-08 02:42:00,
2013-03-07 18:47:00,50.8,38.4,0.00,NW,312,4.5,9.1,62,0.00,,,0.00,WUHU216CR1000,2013-03-08 02:47:00,
2013-03-07 18:52:00,50.8,38.4,0.00,NW,312,4.5,9.1,62,0.00,,,0.00,WUHU216CR1000,2013-03-08 02:52:00,
2013-03-07 18:57:00,50.8,38.4,0.00,NW,312,4.5,9.1,62,0.00,,,0.00,WUHU216CR1000,2013-03-08 02:57:00,
2013-03-07 19:02:00,50.8,38.3,0.00,WNW,287,3.4,5.6,62,0.00,,,0.00,WUHU216CR1000,2013-03-08 03:02:00,
2013-03-07 19:07:00,50.8,38.3,0.00,WNW,287,3.4,5.6,62,0.00,,,0.00,WUHU216CR1000,2013-03-08 03:07:00,
2013-03-07 19:12:00,50.8,38.3,0.00,WNW,287,3.4,5.6,62,0.00,,,0.00,WUHU216CR1000,2013-03-08 03:12:00,
2013-03-07 19:17:00,50.4,38.6,0.00,West,273,2.6,5.6,64,0.00,,,0.00,WUHU216CR1000,2013-03-08 03:17:00,
2013-03-07 19:22:00,50.4,38.6,0.00,West,273,2.6,5.6,64,0.00,,,0.00,WUHU216CR1000,2013-03-08 03:22:00,
2013-03-07 19:27:00,50.4,38.6,0.00,West,273,2.6,5.6,64,0.00,,,0.00,WUHU216CR1000,2013-03-08 03:27:00,
2013-03-07 19:32:00,48.6,41.1,0.00,SW,234,2.7,4.5,75,0.00,,,0.00,WUHU216CR1000,2013-03-08 03:32:00,
2013-03-07 19:37:00,48.6,41.1,0.00,SW,234,2.7,4.5,75,0.00,,,0.00,WUHU216CR1000,2013-03-08 03:37:00,
2013-03-07 19:42:00,48.6,41.1,0.00,SW,234,2.7,4.5,75,0.00,,,0.00,WUHU216CR1000,2013-03-08 03:42:00,
2013-03-07 19:47:00,48.0,41.6,0.00,SW,230,1.9,3.6,78,0.00,,,0.00,WUHU216CR1000,2013-03-08 03:47:00,
2013-03-07 19:52:00,48.0,41.6,0.00,SW,230,1.9,3.6,78,0.00,,,0.00,WUHU216CR1000,2013-03-08 03:52:00,
2013-03-07 19:57:00,48.0,41.6,0.00,SW,230,1.9,3.6,78,0.00,,,0.00,WUHU216CR1000,2013-03-08 03:57:00,
2013-03-07 20:02:00,47.6,42.0,0.00,South,170,0.6,2.1,81,0.00,,,0.00,WUHU216CR1000,2013-03-08 04:02:00,
2013-03-07 20:07:00,47.6,42.0,0.00,South,170,0.6,2.1,81,0.00,,,0.00,WUHU216CR1000,2013-03-08 04:07:00,
2013-03-07 20:12:00,47.6,42.0,0.00,South,170,0.6,2.1,81,0.00,,,0.00,WUHU216CR1000,2013-03-08 04:12:00,
2013-03-07 20:17:00,47.0,42.1,0.00,SSW,197,1.5,2.2,83,0.00,,,0.00,WUHU216CR1000,2013-03-08 04:17:00,
2013-03-07 20:22:00,47.0,42.1,0.00,SSW,197,1.5,2.2,83,0.00,,,0.00,WUHU216CR1000,2013-03-08 04:22:00,
2013-03-07 20:27:00,47.0,42.1,0.00,SSW,197,1.5,2.2,83,0.00,,,0.00,WUHU216CR1000,2013-03-08 04:27:00,
2013-03-07 20:32:00,46.6,43.0,0.00,West,272,1.5,2.1,87,0.00,,,0.00,WUHU216CR1000,2013-03-08 04:32:00,
2013-03-07 20:37:00,46.6,43.0,0.00,West,272,1.5,2.1,87,0.00,,,0.00,WUHU216CR1000,2013-03-08 04:37:00,
2013-03-07 20:42:00,46.6,43.0,0.00,West,272,1.5,2.1,87,0.00,,,0.00,WUHU216CR1000,2013-03-08 04:42:00,
2013-03-07 20:47:00,46.5,43.0,0.00,WNW,286,1.5,2.3,88,0.00,,,0.00,WUHU216CR1000,2013-03-08 04:47:00,
2013-03-07 20:52:00,46.5,43.0,0.00,WNW,286,1.5,2.3,88,0.00,,,0.00,WUHU216CR1000,2013-03-08 04:52:00,
2013-03-07 20:57:00,46.5,43.0,0.00,WNW,286,1.5,2.3,88,0.00,,,0.00,WUHU216CR1000,2013-03-08 04:57:00,
2013-03-07 21:02:00,46.5,43.0,0.00,SW,221,1.9,3.0,87,0.00,,,0.00,WUHU216CR1000,2013-03-08 05:02:00,
2013-03-07 21:07:00,46.5,43.0,0.00,SW,221,1.9,3.0,87,0.00,,,0.00,WUHU216CR1000,2013-03-08 05:07:00,
2013-03-07 21:12:00,46.5,43.0,0.00,SW,221,1.9,3.0,87,0.00,,,0.00,WUHU216CR1000,2013-03-08 05:12:00,
2013-03-07 21:17:00,46.0,42.7,0.00,SW,229,2.1,3.3,88,0.00,,,0.00,WUHU216CR1000,2013-03-08 05:17:00,
2013-03-07 21:22:00,46.0,42.7,0.00,SW,229,2.1,3.3,88,0.00,,,0.00,WUHU216CR1000,2013-03-08 05:22:00,
2013-03-07 21:27:00,46.0,42.7,0.00,SW,229,2.1,3.3,88,0.00,,,0.00,WUHU216CR1000,2013-03-08 05:27:00,
2013-03-07 21:32:00,45.6,42.2,0.00,WSW,251,0.9,2.4,88,0.00,,,0.00,WUHU216CR1000,2013-03-08 05:32:00,
2013-03-07 21:37:00,45.6,42.2,0.00,WSW,251,0.9,2.4,88,0.00,,,0.00,WUHU216CR1000,2013-03-08 05:37:00,
2013-03-07 21:42:00,45.6,42.2,0.00,WSW,251,0.9,2.4,88,0.00,,,0.00,WUHU216CR1000,2013-03-08 05:42:00,
2013-03-07 21:47:00,45.2,41.4,0.00,SW,214,1.4,2.7,86,0.00,,,0.00,WUHU216CR1000,2013-03-08 05:47:00,
2013-03-07 21:52:00,45.2,41.4,0.00,SW,214,1.4,2.7,86,0.00,,,0.00,WUHU216CR1000,2013-03-08 05:52:00,
2013-03-07 21:57:00,45.2,41.4,0.00,SW,214,1.4,2.7,86,0.00,,,0.00,WUHU216CR1000,2013-03-08 05:57:00,
2013-03-07 22:02:00,44.2,41.6,0.00,SW,217,1.3,1.9,91,0.00,,,0.00,WUHU216CR1000,2013-03-08 06:02:00,
2013-03-07 22:07:00,44.2,41.6,0.00,SW,217,1.3,1.9,91,0.00,,,0.00,WUHU216CR1000,2013-03-08 06:07:00,
2013-03-07 22:12:00,44.2,41.6,0.00,SW,217,1.3,1.9,91,0.00,,,0.00,WUHU216CR1000,2013-03-08 06:12:00,
2013-03-07 22:17:00,43.5,41.5,0.00,SW,222,1.3,2.3,93,0.00,,,0.00,WUHU216CR1000,2013-03-08 06:17:00,
2013-03-07 22:18:00,43.5,41.5,0.00,SW,222,1.3,2.3,93,0.00,,,0.00,WUHU216CR1000,2013-03-08 06:18:00,
2013-03-07 22:22:00,43.5,41.5,0.00,SW,222,1.3,2.3,93,0.00,,,0.00,WUHU216CR1000,2013-03-08 06:22:00,
2013-03-07 22:27:00,43.5,41.5,0.00,SW,222,1.3,2.3,93,0.00,,,0.00,WUHU216CR1000,2013-03-08 06:27:00,
2013-03-07 22:32:00,43.1,41.4,0.00,SW,229,1.3,2.5,94,0.00,,,0.00,WUHU216CR1000,2013-03-08 06:32:00,
2013-03-07 22:33:00,43.1,41.4,0.00,SW,229,1.3,2.5,94,0.00,,,0.00,WUHU216CR1000,2013-03-08 06:33:00,
2013-03-07 22:37:00,43.1,41.4,0.00,SW,229,1.3,2.5,94,0.00,,,0.00,WUHU216CR1000,2013-03-08 06:37:00,
2013-03-07 22:42:00,43.1,41.4,0.00,SW,229,1.3,2.5,94,0.00,,,0.00,WUHU216CR1000,2013-03-08 06:42:00,
2013-03-07 22:47:00,43.2,41.5,0.00,SW,224,2.1,3.5,94,0.00,,,0.00,WUHU216CR1000,2013-03-08 06:47:00,
2013-03-07 22:52:00,43.2,41.5,0.00,SW,224,2.1,3.5,94,0.00,,,0.00,WUHU216CR1000,2013-03-08 06:52:00,
2013-03-07 22:57:00,43.2,41.5,0.00,SW,224,2.1,3.5,94,0.00,,,0.00,WUHU216CR1000,2013-03-08 06:57:00,
2013-03-07 23:02:00,43.2,41.5,0.00,SW,224,2.1,3.5,94,0.00,,,0.00,WUHU216CR1000,2013-03-08 07:02:00,
2013-03-07 23:07:00,43.2,41.5,0.00,SW,224,2.1,3.5,94,0.00,,,0.00,WUHU216CR1000,2013-03-08 07:07:00,
2013-03-07 23:12:00,43.2,41.5,0.00,SW,224,2.1,3.5,94,0.00,,,0.00,WUHU216CR1000,2013-03-08 07:12:00,
2013-03-07 23:17:00,43.2,41.5,0.00,SW,224,2.1,3.5,94,0.00,,,0.00,WUHU216CR1000,2013-03-08 07:17:00,
2013-03-07 23:22:00,43.2,41.5,0.00,SW,224,2.1,3.5,94,0.00,,,0.00,WUHU216CR1000,2013-03-08 07:22:00,
2013-03-07 23:27:00,43.2,41.5,0.00,SW,224,2.1,3.5,94,0.00,,,0.00,WUHU216CR1000,2013-03-08 07:27:00,
2013-03-07 23:32:00,43.2,41.5,0.00,SW,224,2.1,3.5,94,0.00,,,0.00,WUHU216CR1000,2013-03-08 07:32:00,
2013-03-07 23:37:00,43.2,41.5,0.00,SW,224,2.1,3.5,94,0.00,,,0.00,WUHU216CR1000,2013-03-08 07:37:00,
2013-03-07 23:42:00,43.2,41.5,0.00,SW,224,2.1,3.5,94,0.00,,,0.00,WUHU216CR1000,2013-03-08 07:42:00,
2013-03-07 23:47:00,43.2,41.5,0.00,SW,224,2.1,3.5,94,0.00,,,0.00,WUHU216CR1000,2013-03-08 07:47:00,
2013-03-07 23:52:00,43.2,41.5,0.00,SW,224,2.1,3.5,94,0.00,,,0.00,WUHU216CR1000,2013-03-08 07:52:00,
2013-03-07 23:57:00,43.2,41.5,0.00,SW,224,2.1,3.5,94,0.00,,,0.00,WUHU216CR1000,2013-03-08 07:57:00,